sensor_id;sensor_type;location;lat;lon;timestamp;temperature;humidity
16966;DHT22;8599;47.852;12.070;2023-02-23T00:00:24;6.80;99.90
16966;DHT22;8599;47.852;12.070;2023-02-23T00:02:53;6.70;99.90
16966;DHT22;8599;47.852;12.070;2023-02-23T00:05:20;6.80;99.90
16966;DHT22;8599;47.852;12.070;2023-02-23T00:07:47;6.70;99.90
16966;DHT22;8599;47.852;12.070;2023-02-23T00:10:14;6.70;99.90
16966;DHT22;8599;47.852;12.070;2023-02-23T00:12:43;6.70;99.90
16966;DHT22;8599;47.852;12.070;2023-02-23T00:15:11;6.70;99.90
16966;DHT22;8599;47.852;12.070;2023-02-23T00:17:40;6.70;99.90
16966;DHT22;8599;47.852;12.070;2023-02-23T00:20:10;6.80;99.90
16966;DHT22;8599;47.852;12.070;2023-02-23T00:22:38;6.80;99.90
16966;DHT22;8599;47.852;12.070;2023-02-23T00:25:06;6.90;99.90
16966;DHT22;8599;47.852;12.070;2023-02-23T00:27:34;6.90;99.90
16966;DHT22;8599;47.852;12.070;2023-02-23T00:30:04;6.90;99.90
16966;DHT22;8599;47.852;12.070;2023-02-23T00:32:33;6.90;99.90
16966;DHT22;8599;47.852;12.070;2023-02-23T00:35:01;7.00;99.90
16966;DHT22;8599;47.852;12.070;2023-02-23T00:37:28;7.00;99.90
16966;DHT22;8599;47.852;12.070;2023-02-23T00:39:55;7.00;99.90
16966;DHT22;8599;47.852;12.070;2023-02-23T00:42:22;6.90;99.90
16966;DHT22;8599;47.852;12.070;2023-02-23T00:44:49;6.90;99.90
16966;DHT22;8599;47.852;12.070;2023-02-23T00:47:16;6.90;99.90
16966;DHT22;8599;47.852;12.070;2023-02-23T00:49:44;6.90;99.90
16966;DHT22;8599;47.852;12.070;2023-02-23T00:52:11;6.90;99.90
16966;DHT22;8599;47.852;12.070;2023-02-23T00:54:40;6.80;99.90
16966;DHT22;8599;47.852;12.070;2023-02-23T00:57:07;6.80;99.90
16966;DHT22;8599;47.852;12.070;2023-02-23T00:59:34;6.80;99.90
16966;DHT22;8599;47.852;12.070;2023-02-23T01:02:01;6.80;99.90
16966;DHT22;8599;47.852;12.070;2023-02-23T01:04:28;6.80;99.90
16966;DHT22;8599;47.852;12.070;2023-02-23T01:06:56;6.80;99.90
16966;DHT22;8599;47.852;12.070;2023-02-23T01:09:23;6.70;99.90
16966;DHT22;8599;47.852;12.070;2023-02-23T01:11:54;6.80;99.90
16966;DHT22;8599;47.852;12.070;2023-02-23T01:14:22;6.80;99.90
16966;DHT22;8599;47.852;12.070;2023-02-23T01:16:49;6.80;99.90
16966;DHT22;8599;47.852;12.070;2023-02-23T01:19:16;6.80;99.90
16966;DHT22;8599;47.852;12.070;2023-02-23T01:21:43;6.80;99.90
16966;DHT22;8599;47.852;12.070;2023-02-23T01:24:11;6.80;99.90
16966;DHT22;8599;47.852;12.070;2023-02-23T01:26:40;6.80;99.90
16966;DHT22;8599;47.852;12.070;2023-02-23T01:29:09;6.80;99.90
16966;DHT22;8599;47.852;12.070;2023-02-23T01:31:38;6.80;99.90
16966;DHT22;8599;47.852;12.070;2023-02-23T01:34:06;6.80;99.90
16966;DHT22;8599;47.852;12.070;2023-02-23T01:36:34;6.80;99.90
16966;DHT22;8599;47.852;12.070;2023-02-23T01:39:02;6.80;99.90
16966;DHT22;8599;47.852;12.070;2023-02-23T01:41:34;6.70;99.90
16966;DHT22;8599;47.852;12.070;2023-02-23T01:44:03;6.70;99.90
16966;DHT22;8599;47.852;12.070;2023-02-23T01:46:32;6.70;99.90
16966;DHT22;8599;47.852;12.070;2023-02-23T01:48:59;6.70;99.90
16966;DHT22;8599;47.852;12.070;2023-02-23T01:51:28;6.70;99.90
16966;DHT22;8599;47.852;12.070;2023-02-23T01:54:00;6.70;99.90
16966;DHT22;8599;47.852;12.070;2023-02-23T01:56:30;6.70;99.90
16966;DHT22;8599;47.852;12.070;2023-02-23T01:59:04;6.70;99.90
16966;DHT22;8599;47.852;12.070;2023-02-23T02:01:32;6.70;99.90
16966;DHT22;8599;47.852;12.070;2023-02-23T02:04:01;6.60;99.90
16966;DHT22;8599;47.852;12.070;2023-02-23T02:06:32;6.60;99.90
16966;DHT22;8599;47.852;12.070;2023-02-23T02:09:02;6.60;99.90
16966;DHT22;8599;47.852;12.070;2023-02-23T02:11:31;6.60;99.90
16966;DHT22;8599;47.852;12.070;2023-02-23T02:14:05;6.60;99.90
16966;DHT22;8599;47.852;12.070;2023-02-23T02:16:55;6.50;99.90
16966;DHT22;8599;47.852;12.070;2023-02-23T02:19:45;6.50;99.90
16966;DHT22;8599;47.852;12.070;2023-02-23T02:25:37;6.50;99.90
16966;DHT22;8599;47.852;12.070;2023-02-23T02:35:03;6.50;99.90
16966;DHT22;8599;47.852;12.070;2023-02-23T02:37:51;6.50;99.90
16966;DHT22;8599;47.852;12.070;2023-02-23T02:40:26;6.50;99.90
16966;DHT22;8599;47.852;12.070;2023-02-23T02:43:00;6.50;99.90
16966;DHT22;8599;47.852;12.070;2023-02-23T02:45:44;6.50;99.90
16966;DHT22;8599;47.852;12.070;2023-02-23T02:48:22;6.40;99.90
16966;DHT22;8599;47.852;12.070;2023-02-23T02:50:59;6.30;99.90
16966;DHT22;8599;47.852;12.070;2023-02-23T02:53:38;6.30;99.90
16966;DHT22;8599;47.852;12.070;2023-02-23T02:56:07;6.20;99.90
16966;DHT22;8599;47.852;12.070;2023-02-23T02:58:36;6.20;99.90
16966;DHT22;8599;47.852;12.070;2023-02-23T03:01:11;6.10;99.90
16966;DHT22;8599;47.852;12.070;2023-02-23T03:03:57;6.10;99.90
16966;DHT22;8599;47.852;12.070;2023-02-23T03:06:45;6.20;99.90
16966;DHT22;8599;47.852;12.070;2023-02-23T03:09:37;6.20;99.90
16966;DHT22;8599;47.852;12.070;2023-02-23T03:12:28;6.30;99.90
16966;DHT22;8599;47.852;12.070;2023-02-23T03:15:31;6.30;99.90
16966;DHT22;8599;47.852;12.070;2023-02-23T03:18:32;6.40;99.90
16966;DHT22;8599;47.852;12.070;2023-02-23T03:21:23;6.40;99.90
16966;DHT22;8599;47.852;12.070;2023-02-23T03:24:14;6.40;99.90
16966;DHT22;8599;47.852;12.070;2023-02-23T03:27:07;6.50;99.90
16966;DHT22;8599;47.852;12.070;2023-02-23T03:29:57;6.50;99.90
16966;DHT22;8599;47.852;12.070;2023-02-23T03:32:46;6.50;99.90
16966;DHT22;8599;47.852;12.070;2023-02-23T03:35:34;6.40;99.90
16966;DHT22;8599;47.852;12.070;2023-02-23T03:38:28;6.40;99.90
16966;DHT22;8599;47.852;12.070;2023-02-23T03:41:17;6.20;99.90
16966;DHT22;8599;47.852;12.070;2023-02-23T03:44:08;6.20;99.90
16966;DHT22;8599;47.852;12.070;2023-02-23T03:46:54;6.20;99.90
16966;DHT22;8599;47.852;12.070;2023-02-23T03:49:41;6.40;99.90
16966;DHT22;8599;47.852;12.070;2023-02-23T03:52:30;6.50;99.90
16966;DHT22;8599;47.852;12.070;2023-02-23T03:55:19;6.50;99.90
16966;DHT22;8599;47.852;12.070;2023-02-23T03:58:08;6.60;99.90
16966;DHT22;8599;47.852;12.070;2023-02-23T04:00:58;6.60;99.90
16966;DHT22;8599;47.852;12.070;2023-02-23T04:03:44;6.60;99.90
16966;DHT22;8599;47.852;12.070;2023-02-23T04:06:33;6.80;99.90
16966;DHT22;8599;47.852;12.070;2023-02-23T04:09:19;6.80;99.90
16966;DHT22;8599;47.852;12.070;2023-02-23T04:12:07;6.80;99.90
16966;DHT22;8599;47.852;12.070;2023-02-23T04:14:56;6.90;99.90
16966;DHT22;8599;47.852;12.070;2023-02-23T04:17:27;6.80;99.90
16966;DHT22;8599;47.852;12.070;2023-02-23T04:19:59;6.90;99.90
16966;DHT22;8599;47.852;12.070;2023-02-23T04:22:26;6.90;99.90
16966;DHT22;8599;47.852;12.070;2023-02-23T04:24:53;6.90;99.90
16966;DHT22;8599;47.852;12.070;2023-02-23T04:27:19;7.00;99.90
16966;DHT22;8599;47.852;12.070;2023-02-23T04:29:46;7.00;99.90
16966;DHT22;8599;47.852;12.070;2023-02-23T04:32:16;7.00;99.90
16966;DHT22;8599;47.852;12.070;2023-02-23T04:34:45;7.00;99.90
16966;DHT22;8599;47.852;12.070;2023-02-23T04:37:12;7.00;99.90
16966;DHT22;8599;47.852;12.070;2023-02-23T04:39:39;7.00;99.90
16966;DHT22;8599;47.852;12.070;2023-02-23T04:42:07;7.10;99.90
16966;DHT22;8599;47.852;12.070;2023-02-23T04:44:34;7.20;99.90
16966;DHT22;8599;47.852;12.070;2023-02-23T04:47:01;7.20;99.90
16966;DHT22;8599;47.852;12.070;2023-02-23T04:49:28;7.10;99.90
16966;DHT22;8599;47.852;12.070;2023-02-23T04:51:56;7.10;99.90
16966;DHT22;8599;47.852;12.070;2023-02-23T04:54:24;7.10;99.90
16966;DHT22;8599;47.852;12.070;2023-02-23T04:56:50;7.10;99.90
16966;DHT22;8599;47.852;12.070;2023-02-23T04:59:17;7.20;99.90
16966;DHT22;8599;47.852;12.070;2023-02-23T05:01:44;7.20;99.90
16966;DHT22;8599;47.852;12.070;2023-02-23T05:04:11;7.20;99.90
16966;DHT22;8599;47.852;12.070;2023-02-23T05:06:38;7.20;99.90
16966;DHT22;8599;47.852;12.070;2023-02-23T05:09:06;7.10;99.90
16966;DHT22;8599;47.852;12.070;2023-02-23T05:11:33;7.00;99.90
16966;DHT22;8599;47.852;12.070;2023-02-23T05:13:59;7.00;99.90
16966;DHT22;8599;47.852;12.070;2023-02-23T05:16:26;6.90;99.90
16966;DHT22;8599;47.852;12.070;2023-02-23T05:18:54;6.90;99.90
16966;DHT22;8599;47.852;12.070;2023-02-23T05:21:20;6.90;99.90
16966;DHT22;8599;47.852;12.070;2023-02-23T05:23:47;6.80;99.90
16966;DHT22;8599;47.852;12.070;2023-02-23T05:26:16;6.80;99.90
16966;DHT22;8599;47.852;12.070;2023-02-23T05:28:43;6.80;99.90
16966;DHT22;8599;47.852;12.070;2023-02-23T05:31:10;6.90;99.90
16966;DHT22;8599;47.852;12.070;2023-02-23T05:33:38;6.80;99.90
16966;DHT22;8599;47.852;12.070;2023-02-23T05:36:08;6.90;99.90
16966;DHT22;8599;47.852;12.070;2023-02-23T05:38:35;6.90;99.90
16966;DHT22;8599;47.852;12.070;2023-02-23T05:41:04;7.00;99.90
16966;DHT22;8599;47.852;12.070;2023-02-23T05:43:34;7.00;99.90
16966;DHT22;8599;47.852;12.070;2023-02-23T05:46:04;7.00;99.90
16966;DHT22;8599;47.852;12.070;2023-02-23T05:48:31;6.90;99.90
16966;DHT22;8599;47.852;12.070;2023-02-23T05:51:00;6.90;99.90
16966;DHT22;8599;47.852;12.070;2023-02-23T05:53:27;7.00;99.90
16966;DHT22;8599;47.852;12.070;2023-02-23T05:55:54;7.00;99.90
16966;DHT22;8599;47.852;12.070;2023-02-23T05:58:20;7.00;99.90
16966;DHT22;8599;47.852;12.070;2023-02-23T06:00:49;7.00;99.90
16966;DHT22;8599;47.852;12.070;2023-02-23T06:03:15;7.00;99.90
16966;DHT22;8599;47.852;12.070;2023-02-23T06:05:48;7.00;99.90
16966;DHT22;8599;47.852;12.070;2023-02-23T06:08:15;7.10;99.90
16966;DHT22;8599;47.852;12.070;2023-02-23T06:10:42;7.10;99.90
16966;DHT22;8599;47.852;12.070;2023-02-23T06:13:09;7.10;99.90
16966;DHT22;8599;47.852;12.070;2023-02-23T06:15:35;7.10;99.90
16966;DHT22;8599;47.852;12.070;2023-02-23T06:18:04;7.20;99.90
16966;DHT22;8599;47.852;12.070;2023-02-23T06:20:31;7.20;99.90
16966;DHT22;8599;47.852;12.070;2023-02-23T06:22:58;7.20;99.90
16966;DHT22;8599;47.852;12.070;2023-02-23T06:25:25;7.30;99.90
16966;DHT22;8599;47.852;12.070;2023-02-23T06:27:52;7.30;99.90
16966;DHT22;8599;47.852;12.070;2023-02-23T06:30:19;7.30;99.90
16966;DHT22;8599;47.852;12.070;2023-02-23T06:32:46;7.30;99.90
16966;DHT22;8599;47.852;12.070;2023-02-23T06:35:14;7.40;99.90
16966;DHT22;8599;47.852;12.070;2023-02-23T06:37:41;7.40;99.90
16966;DHT22;8599;47.852;12.070;2023-02-23T06:40:10;7.40;99.90
16966;DHT22;8599;47.852;12.070;2023-02-23T06:42:37;7.40;99.90
16966;DHT22;8599;47.852;12.070;2023-02-23T06:45:05;7.40;99.90
16966;DHT22;8599;47.852;12.070;2023-02-23T06:47:31;7.40;99.90
16966;DHT22;8599;47.852;12.070;2023-02-23T06:49:59;7.30;99.90
16966;DHT22;8599;47.852;12.070;2023-02-23T06:52:28;7.30;99.90
16966;DHT22;8599;47.852;12.070;2023-02-23T06:54:54;7.30;99.90
16966;DHT22;8599;47.852;12.070;2023-02-23T06:57:21;7.20;99.90
16966;DHT22;8599;47.852;12.070;2023-02-23T06:59:48;7.30;99.90
16966;DHT22;8599;47.852;12.070;2023-02-23T07:02:15;7.30;99.90
16966;DHT22;8599;47.852;12.070;2023-02-23T07:04:42;7.30;99.90
16966;DHT22;8599;47.852;12.070;2023-02-23T07:07:09;7.30;99.90
16966;DHT22;8599;47.852;12.070;2023-02-23T07:09:39;7.30;99.90
16966;DHT22;8599;47.852;12.070;2023-02-23T07:12:07;7.30;99.90
16966;DHT22;8599;47.852;12.070;2023-02-23T07:14:34;7.40;99.90
16966;DHT22;8599;47.852;12.070;2023-02-23T07:17:02;7.30;99.90
16966;DHT22;8599;47.852;12.070;2023-02-23T07:19:29;7.30;99.90
16966;DHT22;8599;47.852;12.070;2023-02-23T07:21:56;7.30;99.90
16966;DHT22;8599;47.852;12.070;2023-02-23T07:24:23;7.30;99.90
16966;DHT22;8599;47.852;12.070;2023-02-23T07:26:51;7.30;99.90
16966;DHT22;8599;47.852;12.070;2023-02-23T07:29:18;7.30;99.90
16966;DHT22;8599;47.852;12.070;2023-02-23T07:31:44;7.40;99.90
16966;DHT22;8599;47.852;12.070;2023-02-23T07:34:14;7.40;99.90
16966;DHT22;8599;47.852;12.070;2023-02-23T07:36:41;7.50;99.90
16966;DHT22;8599;47.852;12.070;2023-02-23T07:39:07;7.50;99.90
16966;DHT22;8599;47.852;12.070;2023-02-23T07:41:34;7.60;99.90
16966;DHT22;8599;47.852;12.070;2023-02-23T07:44:02;7.60;99.90
16966;DHT22;8599;47.852;12.070;2023-02-23T07:46:29;7.70;99.90
16966;DHT22;8599;47.852;12.070;2023-02-23T07:48:56;7.70;99.90
16966;DHT22;8599;47.852;12.070;2023-02-23T07:51:23;7.70;99.90
16966;DHT22;8599;47.852;12.070;2023-02-23T07:53:50;7.70;99.90
16966;DHT22;8599;47.852;12.070;2023-02-23T07:56:16;7.80;99.90
16966;DHT22;8599;47.852;12.070;2023-02-23T07:58:43;7.80;99.90
16966;DHT22;8599;47.852;12.070;2023-02-23T08:01:12;7.90;99.90
16966;DHT22;8599;47.852;12.070;2023-02-23T08:03:39;7.90;99.90
16966;DHT22;8599;47.852;12.070;2023-02-23T08:06:06;8.10;99.90
16966;DHT22;8599;47.852;12.070;2023-02-23T08:08:33;8.10;99.90
16966;DHT22;8599;47.852;12.070;2023-02-23T08:11:02;8.10;99.90
16966;DHT22;8599;47.852;12.070;2023-02-23T08:13:30;8.10;99.90
16966;DHT22;8599;47.852;12.070;2023-02-23T08:15:57;8.10;99.90
16966;DHT22;8599;47.852;12.070;2023-02-23T08:18:25;8.20;99.90
16966;DHT22;8599;47.852;12.070;2023-02-23T08:20:57;8.20;99.90
16966;DHT22;8599;47.852;12.070;2023-02-23T08:23:23;8.20;99.90
16966;DHT22;8599;47.852;12.070;2023-02-23T08:25:51;8.30;99.90
16966;DHT22;8599;47.852;12.070;2023-02-23T08:28:19;8.40;99.90
16966;DHT22;8599;47.852;12.070;2023-02-23T08:30:45;8.40;99.90
16966;DHT22;8599;47.852;12.070;2023-02-23T08:33:12;8.40;99.90
16966;DHT22;8599;47.852;12.070;2023-02-23T08:35:40;8.40;99.90
16966;DHT22;8599;47.852;12.070;2023-02-23T08:38:07;8.40;99.90
16966;DHT22;8599;47.852;12.070;2023-02-23T08:40:34;8.40;99.90
16966;DHT22;8599;47.852;12.070;2023-02-23T08:43:01;8.50;99.90
16966;DHT22;8599;47.852;12.070;2023-02-23T08:45:28;8.50;99.90
16966;DHT22;8599;47.852;12.070;2023-02-23T08:47:54;8.50;99.90
16966;DHT22;8599;47.852;12.070;2023-02-23T08:50:21;8.50;99.90
16966;DHT22;8599;47.852;12.070;2023-02-23T08:52:50;8.60;99.90
16966;DHT22;8599;47.852;12.070;2023-02-23T08:55:16;8.70;99.90
16966;DHT22;8599;47.852;12.070;2023-02-23T08:57:45;8.70;99.90
16966;DHT22;8599;47.852;12.070;2023-02-23T09:00:13;8.80;99.90
16966;DHT22;8599;47.852;12.070;2023-02-23T09:02:41;8.80;99.90
16966;DHT22;8599;47.852;12.070;2023-02-23T09:05:09;8.80;99.90
16966;DHT22;8599;47.852;12.070;2023-02-23T09:07:37;8.90;99.90
16966;DHT22;8599;47.852;12.070;2023-02-23T09:10:07;9.00;99.90
16966;DHT22;8599;47.852;12.070;2023-02-23T09:12:34;9.10;99.90
16966;DHT22;8599;47.852;12.070;2023-02-23T09:15:01;9.10;99.90
16966;DHT22;8599;47.852;12.070;2023-02-23T09:17:27;9.20;99.90
16966;DHT22;8599;47.852;12.070;2023-02-23T09:19:54;9.30;99.90
16966;DHT22;8599;47.852;12.070;2023-02-23T09:22:21;9.30;99.90
16966;DHT22;8599;47.852;12.070;2023-02-23T09:24:48;9.30;99.90
16966;DHT22;8599;47.852;12.070;2023-02-23T09:27:16;9.30;99.90
16966;DHT22;8599;47.852;12.070;2023-02-23T09:29:43;9.20;99.90
16966;DHT22;8599;47.852;12.070;2023-02-23T09:32:10;9.20;99.90
16966;DHT22;8599;47.852;12.070;2023-02-23T09:34:37;9.20;99.90
16966;DHT22;8599;47.852;12.070;2023-02-23T09:37:04;9.20;99.90
16966;DHT22;8599;47.852;12.070;2023-02-23T09:39:31;9.20;99.90
16966;DHT22;8599;47.852;12.070;2023-02-23T09:42:17;9.20;99.90
16966;DHT22;8599;47.852;12.070;2023-02-23T09:44:56;9.20;99.90
16966;DHT22;8599;47.852;12.070;2023-02-23T09:47:32;9.30;99.90
16966;DHT22;8599;47.852;12.070;2023-02-23T09:50:13;9.20;99.90
16966;DHT22;8599;47.852;12.070;2023-02-23T09:52:43;9.20;99.90
16966;DHT22;8599;47.852;12.070;2023-02-23T09:55:11;9.20;99.90
16966;DHT22;8599;47.852;12.070;2023-02-23T09:57:43;9.20;99.90
16966;DHT22;8599;47.852;12.070;2023-02-23T10:00:16;9.20;99.90
16966;DHT22;8599;47.852;12.070;2023-02-23T10:03:04;9.20;99.90
16966;DHT22;8599;47.852;12.070;2023-02-23T10:05:37;9.30;99.90
16966;DHT22;8599;47.852;12.070;2023-02-23T10:08:18;9.30;99.90
16966;DHT22;8599;47.852;12.070;2023-02-23T10:10:49;9.30;99.90
16966;DHT22;8599;47.852;12.070;2023-02-23T10:13:22;9.30;99.90
16966;DHT22;8599;47.852;12.070;2023-02-23T10:15:56;9.30;99.90
16966;DHT22;8599;47.852;12.070;2023-02-23T10:18:32;9.40;99.90
16966;DHT22;8599;47.852;12.070;2023-02-23T10:21:04;9.50;99.90
16966;DHT22;8599;47.852;12.070;2023-02-23T10:23:37;9.60;99.90
16966;DHT22;8599;47.852;12.070;2023-02-23T10:26:07;9.60;99.90
16966;DHT22;8599;47.852;12.070;2023-02-23T10:28:41;9.60;99.90
16966;DHT22;8599;47.852;12.070;2023-02-23T10:31:22;9.70;99.90
16966;DHT22;8599;47.852;12.070;2023-02-23T10:33:52;9.80;99.90
16966;DHT22;8599;47.852;12.070;2023-02-23T10:36:30;9.90;99.90
16966;DHT22;8599;47.852;12.070;2023-02-23T10:38:59;9.90;99.90
16966;DHT22;8599;47.852;12.070;2023-02-23T10:41:26;9.90;99.90
16966;DHT22;8599;47.852;12.070;2023-02-23T10:43:54;10.00;99.90
16966;DHT22;8599;47.852;12.070;2023-02-23T10:46:23;10.10;99.90
16966;DHT22;8599;47.852;12.070;2023-02-23T10:48:53;10.10;99.90
16966;DHT22;8599;47.852;12.070;2023-02-23T10:51:26;10.20;99.90
16966;DHT22;8599;47.852;12.070;2023-02-23T10:53:54;10.20;99.90
16966;DHT22;8599;47.852;12.070;2023-02-23T10:56:22;10.30;99.90
16966;DHT22;8599;47.852;12.070;2023-02-23T10:58:50;10.40;99.90
16966;DHT22;8599;47.852;12.070;2023-02-23T11:01:33;10.50;99.90
16966;DHT22;8599;47.852;12.070;2023-02-23T11:04:12;10.50;99.90
16966;DHT22;8599;47.852;12.070;2023-02-23T11:06:41;10.60;99.90
16966;DHT22;8599;47.852;12.070;2023-02-23T11:09:24;10.70;99.90
16966;DHT22;8599;47.852;12.070;2023-02-23T11:11:56;10.80;99.90
16966;DHT22;8599;47.852;12.070;2023-02-23T11:14:24;10.80;99.90
16966;DHT22;8599;47.852;12.070;2023-02-23T11:16:54;10.80;99.90
16966;DHT22;8599;47.852;12.070;2023-02-23T11:19:26;10.80;99.90
16966;DHT22;8599;47.852;12.070;2023-02-23T11:21:55;10.80;99.90
16966;DHT22;8599;47.852;12.070;2023-02-23T11:24:24;10.80;99.90
16966;DHT22;8599;47.852;12.070;2023-02-23T11:26:53;10.80;99.90
16966;DHT22;8599;47.852;12.070;2023-02-23T11:29:28;10.80;99.90
16966;DHT22;8599;47.852;12.070;2023-02-23T11:32:01;10.80;99.90
16966;DHT22;8599;47.852;12.070;2023-02-23T11:34:32;10.80;99.90
16966;DHT22;8599;47.852;12.070;2023-02-23T11:37:03;10.80;99.90
16966;DHT22;8599;47.852;12.070;2023-02-23T11:39:30;10.80;99.90
16966;DHT22;8599;47.852;12.070;2023-02-23T11:42:14;10.80;99.90
16966;DHT22;8599;47.852;12.070;2023-02-23T11:44:41;10.80;99.90
16966;DHT22;8599;47.852;12.070;2023-02-23T11:47:19;10.70;99.90
16966;DHT22;8599;47.852;12.070;2023-02-23T11:49:47;10.70;99.90
16966;DHT22;8599;47.852;12.070;2023-02-23T11:52:18;10.70;99.90
16966;DHT22;8599;47.852;12.070;2023-02-23T11:54:51;10.70;99.90
16966;DHT22;8599;47.852;12.070;2023-02-23T11:57:22;10.60;99.90
16966;DHT22;8599;47.852;12.070;2023-02-23T11:59:50;10.60;99.90
16966;DHT22;8599;47.852;12.070;2023-02-23T12:02:24;10.70;99.90
16966;DHT22;8599;47.852;12.070;2023-02-23T12:05:01;10.70;99.90
16966;DHT22;8599;47.852;12.070;2023-02-23T12:07:37;10.70;99.90
16966;DHT22;8599;47.852;12.070;2023-02-23T12:10:15;10.80;99.90
16966;DHT22;8599;47.852;12.070;2023-02-23T12:12:57;10.90;99.90
16966;DHT22;8599;47.852;12.070;2023-02-23T12:15:35;11.00;99.90
16966;DHT22;8599;47.852;12.070;2023-02-23T12:18:14;11.00;99.90
16966;DHT22;8599;47.852;12.070;2023-02-23T12:20:44;11.10;99.90
16966;DHT22;8599;47.852;12.070;2023-02-23T12:23:17;11.10;99.90
16966;DHT22;8599;47.852;12.070;2023-02-23T12:25:49;11.10;99.90
16966;DHT22;8599;47.852;12.070;2023-02-23T12:28:21;11.10;99.90
16966;DHT22;8599;47.852;12.070;2023-02-23T12:30:55;11.00;99.90
16966;DHT22;8599;47.852;12.070;2023-02-23T12:33:27;11.00;99.90
16966;DHT22;8599;47.852;12.070;2023-02-23T12:36:01;11.00;99.90
16966;DHT22;8599;47.852;12.070;2023-02-23T12:38:36;11.10;99.90
16966;DHT22;8599;47.852;12.070;2023-02-23T12:41:10;11.10;99.90
16966;DHT22;8599;47.852;12.070;2023-02-23T12:43:42;11.10;99.90
16966;DHT22;8599;47.852;12.070;2023-02-23T12:46:17;11.10;99.90
16966;DHT22;8599;47.852;12.070;2023-02-23T12:48:55;11.20;99.90
16966;DHT22;8599;47.852;12.070;2023-02-23T12:51:29;11.20;99.90
16966;DHT22;8599;47.852;12.070;2023-02-23T12:53:58;11.20;99.90
16966;DHT22;8599;47.852;12.070;2023-02-23T12:56:38;11.20;99.90
16966;DHT22;8599;47.852;12.070;2023-02-23T12:59:23;11.30;99.90
16966;DHT22;8599;47.852;12.070;2023-02-23T13:01:55;11.30;99.90
16966;DHT22;8599;47.852;12.070;2023-02-23T13:04:47;11.50;99.90
16966;DHT22;8599;47.852;12.070;2023-02-23T13:07:20;11.50;99.90
16966;DHT22;8599;47.852;12.070;2023-02-23T13:10:04;11.50;99.90
16966;DHT22;8599;47.852;12.070;2023-02-23T13:12:50;11.60;99.90
16966;DHT22;8599;47.852;12.070;2023-02-23T13:15:22;11.70;99.90
16966;DHT22;8599;47.852;12.070;2023-02-23T13:17:56;11.70;99.90
16966;DHT22;8599;47.852;12.070;2023-02-23T13:20:32;11.70;99.90
16966;DHT22;8599;47.852;12.070;2023-02-23T13:23:09;11.70;99.90
16966;DHT22;8599;47.852;12.070;2023-02-23T13:25:44;11.70;99.90
16966;DHT22;8599;47.852;12.070;2023-02-23T13:28:15;11.80;99.90
16966;DHT22;8599;47.852;12.070;2023-02-23T13:30:43;11.80;99.90
16966;DHT22;8599;47.852;12.070;2023-02-23T13:33:17;11.90;99.90
16966;DHT22;8599;47.852;12.070;2023-02-23T13:35:49;12.00;99.90
16966;DHT22;8599;47.852;12.070;2023-02-23T13:38:21;12.00;99.90
16966;DHT22;8599;47.852;12.070;2023-02-23T13:40:53;12.00;99.90
16966;DHT22;8599;47.852;12.070;2023-02-23T13:43:26;12.10;99.90
16966;DHT22;8599;47.852;12.070;2023-02-23T13:46:12;12.00;99.90
16966;DHT22;8599;47.852;12.070;2023-02-23T13:48:50;12.10;99.90
16966;DHT22;8599;47.852;12.070;2023-02-23T13:51:22;12.00;99.90
16966;DHT22;8599;47.852;12.070;2023-02-23T13:53:59;12.00;99.90
16966;DHT22;8599;47.852;12.070;2023-02-23T13:56:28;12.00;99.90
16966;DHT22;8599;47.852;12.070;2023-02-23T13:58:59;11.90;99.90
16966;DHT22;8599;47.852;12.070;2023-02-23T14:01:30;11.90;99.90
16966;DHT22;8599;47.852;12.070;2023-02-23T14:03:58;11.80;99.90
16966;DHT22;8599;47.852;12.070;2023-02-23T14:06:29;11.70;99.90
16966;DHT22;8599;47.852;12.070;2023-02-23T14:08:58;11.70;99.90
16966;DHT22;8599;47.852;12.070;2023-02-23T14:11:39;11.70;99.90
16966;DHT22;8599;47.852;12.070;2023-02-23T14:14:10;11.70;99.90
16966;DHT22;8599;47.852;12.070;2023-02-23T14:16:38;11.70;99.90
16966;DHT22;8599;47.852;12.070;2023-02-23T14:19:10;11.60;99.90
16966;DHT22;8599;47.852;12.070;2023-02-23T14:21:46;11.60;99.90
16966;DHT22;8599;47.852;12.070;2023-02-23T14:24:19;11.70;99.90
16966;DHT22;8599;47.852;12.070;2023-02-23T14:30:18;11.60;99.90
16966;DHT22;8599;47.852;12.070;2023-02-23T14:32:47;11.60;99.90
16966;DHT22;8599;47.852;12.070;2023-02-23T14:35:37;11.60;99.90
16966;DHT22;8599;47.852;12.070;2023-02-23T14:38:15;11.60;99.90
16966;DHT22;8599;47.852;12.070;2023-02-23T14:40:44;11.50;99.90
16966;DHT22;8599;47.852;12.070;2023-02-23T14:43:40;11.50;99.90
16966;DHT22;8599;47.852;12.070;2023-02-23T14:46:17;11.50;99.90
16966;DHT22;8599;47.852;12.070;2023-02-23T14:48:56;11.50;99.90
16966;DHT22;8599;47.852;12.070;2023-02-23T14:51:31;11.50;99.90
16966;DHT22;8599;47.852;12.070;2023-02-23T14:54:02;11.40;99.90
16966;DHT22;8599;47.852;12.070;2023-02-23T14:56:45;11.40;99.90
16966;DHT22;8599;47.852;12.070;2023-02-23T14:59:17;11.50;99.90
16966;DHT22;8599;47.852;12.070;2023-02-23T15:01:46;11.40;99.90
16966;DHT22;8599;47.852;12.070;2023-02-23T15:04:18;11.40;99.90
16966;DHT22;8599;47.852;12.070;2023-02-23T15:06:46;11.30;99.90
16966;DHT22;8599;47.852;12.070;2023-02-23T15:09:22;11.40;99.90
16966;DHT22;8599;47.852;12.070;2023-02-23T15:11:50;11.30;99.90
16966;DHT22;8599;47.852;12.070;2023-02-23T15:14:19;11.30;99.90
16966;DHT22;8599;47.852;12.070;2023-02-23T15:16:48;11.30;99.90
16966;DHT22;8599;47.852;12.070;2023-02-23T15:19:16;11.30;99.90
16966;DHT22;8599;47.852;12.070;2023-02-23T15:21:49;11.30;99.90
16966;DHT22;8599;47.852;12.070;2023-02-23T15:24:21;11.40;99.90
16966;DHT22;8599;47.852;12.070;2023-02-23T15:26:49;11.30;99.90
16966;DHT22;8599;47.852;12.070;2023-02-23T15:29:18;11.30;99.90
16966;DHT22;8599;47.852;12.070;2023-02-23T15:31:46;11.30;99.90
16966;DHT22;8599;47.852;12.070;2023-02-23T15:34:17;11.30;99.90
16966;DHT22;8599;47.852;12.070;2023-02-23T15:36:48;11.30;99.90
16966;DHT22;8599;47.852;12.070;2023-02-23T15:39:21;11.30;99.90
16966;DHT22;8599;47.852;12.070;2023-02-23T15:41:55;11.30;99.90
16966;DHT22;8599;47.852;12.070;2023-02-23T15:44:23;11.20;99.90
16966;DHT22;8599;47.852;12.070;2023-02-23T15:46:53;11.30;99.90
16966;DHT22;8599;47.852;12.070;2023-02-23T15:49:21;11.20;99.90
16966;DHT22;8599;47.852;12.070;2023-02-23T15:51:55;11.10;99.90
16966;DHT22;8599;47.852;12.070;2023-02-23T15:54:27;11.10;99.90
16966;DHT22;8599;47.852;12.070;2023-02-23T15:56:58;11.10;99.90
16966;DHT22;8599;47.852;12.070;2023-02-23T15:59:29;11.10;99.90
16966;DHT22;8599;47.852;12.070;2023-02-23T16:01:59;11.00;99.90
16966;DHT22;8599;47.852;12.070;2023-02-23T16:04:29;11.00;99.90
16966;DHT22;8599;47.852;12.070;2023-02-23T16:07:07;11.00;99.90
16966;DHT22;8599;47.852;12.070;2023-02-23T16:09:46;11.00;99.90
16966;DHT22;8599;47.852;12.070;2023-02-23T16:12:17;10.90;99.90
16966;DHT22;8599;47.852;12.070;2023-02-23T16:14:48;10.90;99.90
16966;DHT22;8599;47.852;12.070;2023-02-23T16:17:23;10.90;99.90
16966;DHT22;8599;47.852;12.070;2023-02-23T16:19:50;10.90;99.90
16966;DHT22;8599;47.852;12.070;2023-02-23T16:22:21;10.90;99.90